sensor_id;sensor_type;location;lat;lon;timestamp;pressure;altitude;pressure_sealevel;temperature;humidity
6389;BME280;3227;42.654;23.360;2023-04-05T00:01:33;93880.28;;;2.54;85.64
6389;BME280;3227;42.654;23.360;2023-04-05T00:04:00;93913.59;;;2.77;86.08
6389;BME280;3227;42.654;23.360;2023-04-05T00:06:29;93892.56;;;2.79;85.82
6389;BME280;3227;42.654;23.360;2023-04-05T00:08:57;93904.47;;;2.85;84.68
6389;BME280;3227;42.654;23.360;2023-04-05T00:11:24;93911.28;;;2.89;85.39
6389;BME280;3227;42.654;23.360;2023-04-05T00:13:51;93923.09;;;2.88;85.32
6389;BME280;3227;42.654;23.360;2023-04-05T00:16:19;93862.44;;;2.48;85.18
6389;BME280;3227;42.654;23.360;2023-04-05T00:18:46;93904.41;;;2.82;85.82
6389;BME280;3227;42.654;23.360;2023-04-05T00:21:16;93887.16;;;2.61;85.32
6389;BME280;3227;42.654;23.360;2023-04-05T00:23:47;93909.44;;;2.80;86.33
6389;BME280;3227;42.654;23.360;2023-04-05T00:26:16;93903.56;;;2.80;86.27
6389;BME280;3227;42.654;23.360;2023-04-05T00:28:42;93790.34;;;2.21;85.77
6389;BME280;3227;42.654;23.360;2023-04-05T00:31:09;93857.72;;;2.64;85.83
6389;BME280;3227;42.654;23.360;2023-04-05T00:33:36;93910.59;;;2.96;84.94
6389;BME280;3227;42.654;23.360;2023-04-05T00:36:10;93919.22;;;3.07;84.99
6389;BME280;3227;42.654;23.360;2023-04-05T00:38:36;93926.84;;;3.09;84.48
6389;BME280;3227;42.654;23.360;2023-04-05T00:41:05;93930.34;;;3.15;83.75
6389;BME280;3227;42.654;23.360;2023-04-05T00:43:32;93921.63;;;2.99;83.43
6389;BME280;3227;42.654;23.360;2023-04-05T00:46:00;93925.09;;;3.04;83.77
6389;BME280;3227;42.654;23.360;2023-04-05T00:48:28;93919.44;;;3.19;83.60
6389;BME280;3227;42.654;23.360;2023-04-05T00:50:56;93924.59;;;3.24;83.46
6389;BME280;3227;42.654;23.360;2023-04-05T00:53:23;93925.94;;;3.03;82.39
6389;BME280;3227;42.654;23.360;2023-04-05T00:55:52;93903.91;;;2.99;82.48
6389;BME280;3227;42.654;23.360;2023-04-05T00:58:21;93825.31;;;2.44;83.16
6389;BME280;3227;42.654;23.360;2023-04-05T01:00:54;93924.69;;;2.83;83.50
6389;BME280;3227;42.654;23.360;2023-04-05T01:03:26;93921.50;;;2.93;83.99
6389;BME280;3227;42.654;23.360;2023-04-05T01:06:05;93911.97;;;2.79;83.79
6389;BME280;3227;42.654;23.360;2023-04-05T01:08:41;93929.00;;;2.89;84.16
6389;BME280;3227;42.654;23.360;2023-04-05T01:11:12;93930.78;;;2.93;82.55
6389;BME280;3227;42.654;23.360;2023-04-05T01:13:44;93938.53;;;3.02;83.56
6389;BME280;3227;42.654;23.360;2023-04-05T01:16:11;93915.66;;;2.97;82.71
6389;BME280;3227;42.654;23.360;2023-04-05T01:18:37;93925.78;;;2.96;82.52
6389;BME280;3227;42.654;23.360;2023-04-05T01:21:22;93924.84;;;2.92;83.19
6389;BME280;3227;42.654;23.360;2023-04-05T01:24:00;93923.25;;;2.97;82.13
6389;BME280;3227;42.654;23.360;2023-04-05T01:26:56;93929.25;;;3.01;81.70
6389;BME280;3227;42.654;23.360;2023-04-05T01:29:38;93937.53;;;2.94;80.99
6389;BME280;3227;42.654;23.360;2023-04-05T01:32:14;93939.19;;;2.92;81.39
6389;BME280;3227;42.654;23.360;2023-04-05T01:34:49;93878.50;;;2.50;82.24
6389;BME280;3227;42.654;23.360;2023-04-05T01:37:19;93930.94;;;3.02;82.30
6389;BME280;3227;42.654;23.360;2023-04-05T01:39:46;93933.50;;;3.03;81.44
6389;BME280;3227;42.654;23.360;2023-04-05T01:42:19;93933.69;;;3.13;81.79
6389;BME280;3227;42.654;23.360;2023-04-05T01:44:50;93934.75;;;3.25;81.46
6389;BME280;3227;42.654;23.360;2023-04-05T01:47:16;93934.00;;;3.31;80.56
6389;BME280;3227;42.654;23.360;2023-04-05T01:49:44;93933.81;;;3.20;80.87
6389;BME280;3227;42.654;23.360;2023-04-05T01:52:11;93907.16;;;2.92;80.72
6389;BME280;3227;42.654;23.360;2023-04-05T01:54:38;93926.59;;;2.95;80.96
6389;BME280;3227;42.654;23.360;2023-04-05T01:57:05;93931.69;;;2.98;82.48
6389;BME280;3227;42.654;23.360;2023-04-05T01:59:32;93941.38;;;3.19;81.30
6389;BME280;3227;42.654;23.360;2023-04-05T02:02:00;93921.22;;;3.25;81.07
6389;BME280;3227;42.654;23.360;2023-04-05T02:04:26;93938.09;;;3.24;80.95
6389;BME280;3227;42.654;23.360;2023-04-05T02:06:53;93941.53;;;3.28;81.33
6389;BME280;3227;42.654;23.360;2023-04-05T02:09:20;93935.66;;;3.29;80.33
6389;BME280;3227;42.654;23.360;2023-04-05T02:11:47;93936.53;;;3.29;81.08
6389;BME280;3227;42.654;23.360;2023-04-05T02:14:14;93928.81;;;3.25;80.35
6389;BME280;3227;42.654;23.360;2023-04-05T02:16:40;93934.00;;;3.31;80.19
6389;BME280;3227;42.654;23.360;2023-04-05T02:19:09;93937.63;;;3.45;80.68
6389;BME280;3227;42.654;23.360;2023-04-05T02:21:37;93942.66;;;3.43;79.85
6389;BME280;3227;42.654;23.360;2023-04-05T02:24:05;93943.72;;;3.56;80.28
6389;BME280;3227;42.654;23.360;2023-04-05T02:26:32;93929.94;;;3.40;80.40
6389;BME280;3227;42.654;23.360;2023-04-05T02:28:59;93920.34;;;3.23;79.12
6389;BME280;3227;42.654;23.360;2023-04-05T02:31:26;93939.78;;;3.24;80.71
6389;BME280;3227;42.654;23.360;2023-04-05T02:33:52;93941.47;;;3.25;81.59
6389;BME280;3227;42.654;23.360;2023-04-05T02:36:20;93942.38;;;3.27;80.77
6389;BME280;3227;42.654;23.360;2023-04-05T02:38:48;93942.41;;;3.28;80.06
6389;BME280;3227;42.654;23.360;2023-04-05T02:41:15;93932.97;;;3.21;81.52
6389;BME280;3227;42.654;23.360;2023-04-05T02:43:42;93934.75;;;3.25;80.66
6389;BME280;3227;42.654;23.360;2023-04-05T02:46:08;93920.03;;;3.06;81.44
6389;BME280;3227;42.654;23.360;2023-04-05T02:48:35;93935.31;;;3.11;81.44
6389;BME280;3227;42.654;23.360;2023-04-05T02:51:02;93932.22;;;3.25;81.71
6389;BME280;3227;42.654;23.360;2023-04-05T02:53:31;93928.06;;;3.29;80.82
6389;BME280;3227;42.654;23.360;2023-04-05T02:55:57;93935.78;;;3.38;81.69
6389;BME280;3227;42.654;23.360;2023-04-05T02:58:25;93927.38;;;3.37;80.03
6389;BME280;3227;42.654;23.360;2023-04-05T03:00:52;93930.44;;;3.20;80.63
6389;BME280;3227;42.654;23.360;2023-04-05T03:03:21;93930.16;;;3.04;81.34
6389;BME280;3227;42.654;23.360;2023-04-05T03:05:48;93920.41;;;3.26;81.13
6389;BME280;3227;42.654;23.360;2023-04-05T03:08:22;93878.56;;;2.96;81.29
6389;BME280;3227;42.654;23.360;2023-04-05T03:10:51;93924.16;;;3.48;81.16
6389;BME280;3227;42.654;23.360;2023-04-05T03:13:18;93932.56;;;3.45;81.13
6389;BME280;3227;42.654;23.360;2023-04-05T03:15:44;93928.34;;;3.47;80.78
6389;BME280;3227;42.654;23.360;2023-04-05T03:18:11;93930.75;;;3.39;81.04
6389;BME280;3227;42.654;23.360;2023-04-05T03:20:38;93899.38;;;3.28;81.18
6389;BME280;3227;42.654;23.360;2023-04-05T03:23:06;93847.47;;;3.03;79.69
6389;BME280;3227;42.654;23.360;2023-04-05T03:25:33;93933.59;;;3.58;80.41
6389;BME280;3227;42.654;23.360;2023-04-05T03:28:03;93926.72;;;3.49;80.20
6389;BME280;3227;42.654;23.360;2023-04-05T03:30:30;93930.13;;;3.51;80.59
6389;BME280;3227;42.654;23.360;2023-04-05T03:32:57;93928.63;;;3.62;80.27
6389;BME280;3227;42.654;23.360;2023-04-05T03:35:26;93938.69;;;3.58;80.45
6389;BME280;3227;42.654;23.360;2023-04-05T03:37:52;93934.25;;;3.44;80.95
6389;BME280;3227;42.654;23.360;2023-04-05T03:40:19;93932.63;;;3.50;80.99
6389;BME280;3227;42.654;23.360;2023-04-05T03:42:46;93930.06;;;3.48;81.75
6389;BME280;3227;42.654;23.360;2023-04-05T03:45:14;93933.38;;;3.44;82.03
6389;BME280;3227;42.654;23.360;2023-04-05T03:47:41;93943.66;;;3.52;83.12
6389;BME280;3227;42.654;23.360;2023-04-05T03:50:09;93937.66;;;3.48;86.12
6389;BME280;3227;42.654;23.360;2023-04-05T03:52:35;93943.75;;;3.58;85.01
6389;BME280;3227;42.654;23.360;2023-04-05T03:55:03;93938.63;;;3.53;83.77
6389;BME280;3227;42.654;23.360;2023-04-05T03:57:29;93947.06;;;3.54;84.16
6389;BME280;3227;42.654;23.360;2023-04-05T03:59:56;93918.94;;;3.37;83.59
6389;BME280;3227;42.654;23.360;2023-04-05T04:02:24;93947.97;;;3.59;82.76
6389;BME280;3227;42.654;23.360;2023-04-05T04:04:51;93963.16;;;3.57;83.72
6389;BME280;3227;42.654;23.360;2023-04-05T04:07:18;93955.63;;;3.60;83.98
6389;BME280;3227;42.654;23.360;2023-04-05T04:09:45;93959.63;;;3.49;84.66
6389;BME280;3227;42.654;23.360;2023-04-05T04:12:11;93961.38;;;3.52;85.19
6389;BME280;3227;42.654;23.360;2023-04-05T04:14:38;93957.09;;;3.49;85.56
6389;BME280;3227;42.654;23.360;2023-04-05T04:17:05;93957.84;;;3.43;85.99
6389;BME280;3227;42.654;23.360;2023-04-05T04:19:33;93961.94;;;3.35;86.23
6389;BME280;3227;42.654;23.360;2023-04-05T04:22:00;93950.78;;;3.26;86.12
6389;BME280;3227;42.654;23.360;2023-04-05T04:24:27;93959.19;;;3.25;86.60
6389;BME280;3227;42.654;23.360;2023-04-05T04:26:57;93948.06;;;3.15;85.63
6389;BME280;3227;42.654;23.360;2023-04-05T04:29:24;93963.50;;;3.29;86.45
6389;BME280;3227;42.654;23.360;2023-04-05T04:31:55;93929.75;;;3.28;85.64
6389;BME280;3227;42.654;23.360;2023-04-05T04:34:22;93964.06;;;3.61;85.41
6389;BME280;3227;42.654;23.360;2023-04-05T04:36:51;93961.50;;;3.59;85.44
6389;BME280;3227;42.654;23.360;2023-04-05T04:39:26;93969.88;;;3.55;84.92
6389;BME280;3227;42.654;23.360;2023-04-05T04:41:56;93958.09;;;3.57;85.59
6389;BME280;3227;42.654;23.360;2023-04-05T04:44:23;93971.56;;;3.56;84.90
6389;BME280;3227;42.654;23.360;2023-04-05T04:46:55;93896.72;;;3.21;84.73
6389;BME280;3227;42.654;23.360;2023-04-05T04:49:22;93960.69;;;3.60;85.27
6389;BME280;3227;42.654;23.360;2023-04-05T04:51:50;93961.66;;;3.68;84.26
6389;BME280;3227;42.654;23.360;2023-04-05T04:54:17;93969.38;;;3.76;84.53
6389;BME280;3227;42.654;23.360;2023-04-05T04:56:46;93939.72;;;3.69;83.07
6389;BME280;3227;42.654;23.360;2023-04-05T04:59:13;93968.66;;;3.83;81.84
6389;BME280;3227;42.654;23.360;2023-04-05T05:01:42;93974.44;;;3.76;82.18
6389;BME280;3227;42.654;23.360;2023-04-05T05:04:10;93970.03;;;3.64;81.79
6389;BME280;3227;42.654;23.360;2023-04-05T05:06:37;93967.06;;;3.40;81.87
6389;BME280;3227;42.654;23.360;2023-04-05T05:09:05;93975.53;;;3.40;81.96
6389;BME280;3227;42.654;23.360;2023-04-05T05:11:32;93972.94;;;3.39;82.04
6389;BME280;3227;42.654;23.360;2023-04-05T05:13:59;93977.97;;;3.36;82.26
6389;BME280;3227;42.654;23.360;2023-04-05T05:16:25;93973.22;;;3.54;81.90
6389;BME280;3227;42.654;23.360;2023-04-05T05:18:52;93986.88;;;3.61;82.23
6389;BME280;3227;42.654;23.360;2023-04-05T05:21:19;93975.81;;;3.57;81.15
6389;BME280;3227;42.654;23.360;2023-04-05T05:23:46;93963.03;;;3.50;81.36
6389;BME280;3227;42.654;23.360;2023-04-05T05:26:15;93993.78;;;3.69;81.48
6389;BME280;3227;42.654;23.360;2023-04-05T05:28:41;93987.88;;;3.72;80.75
6389;BME280;3227;42.654;23.360;2023-04-05T05:31:10;93980.00;;;3.55;78.62
6389;BME280;3227;42.654;23.360;2023-04-05T05:33:38;93983.13;;;3.40;78.64
6389;BME280;3227;42.654;23.360;2023-04-05T05:36:05;93981.22;;;3.30;79.09
6389;BME280;3227;42.654;23.360;2023-04-05T05:38:33;93978.25;;;3.51;80.14
6389;BME280;3227;42.654;23.360;2023-04-05T05:40:59;93984.25;;;3.58;79.58
6389;BME280;3227;42.654;23.360;2023-04-05T05:43:28;93978.56;;;3.69;79.43
6389;BME280;3227;42.654;23.360;2023-04-05T05:45:54;93980.19;;;3.66;79.98
6389;BME280;3227;42.654;23.360;2023-04-05T05:48:21;93981.03;;;3.66;80.08
6389;BME280;3227;42.654;23.360;2023-04-05T05:50:48;93976.59;;;4.03;82.32
6389;BME280;3227;42.654;23.360;2023-04-05T05:53:15;93981.06;;;4.22;80.74
6389;BME280;3227;42.654;23.360;2023-04-05T05:55:42;93933.56;;;4.09;79.67
6389;BME280;3227;42.654;23.360;2023-04-05T05:58:08;93974.69;;;4.48;78.75
6389;BME280;3227;42.654;23.360;2023-04-05T06:00:37;93949.38;;;4.53;78.22
6389;BME280;3227;42.654;23.360;2023-04-05T06:03:04;93977.59;;;4.74;75.84
6389;BME280;3227;42.654;23.360;2023-04-05T06:05:31;93986.69;;;4.58;75.70
6389;BME280;3227;42.654;23.360;2023-04-05T06:07:58;93986.84;;;4.71;76.29
6389;BME280;3227;42.654;23.360;2023-04-05T06:10:24;93985.16;;;4.71;73.78
6389;BME280;3227;42.654;23.360;2023-04-05T06:12:51;93993.53;;;4.66;74.15
6389;BME280;3227;42.654;23.360;2023-04-05T06:15:18;93981.63;;;4.58;73.00
6389;BME280;3227;42.654;23.360;2023-04-05T06:17:46;94003.78;;;4.72;73.71
6389;BME280;3227;42.654;23.360;2023-04-05T06:20:13;93992.63;;;4.62;73.22
6389;BME280;3227;42.654;23.360;2023-04-05T06:22:40;93990.31;;;4.76;73.42
6389;BME280;3227;42.654;23.360;2023-04-05T06:25:07;93997.19;;;4.86;72.17
6389;BME280;3227;42.654;23.360;2023-04-05T06:27:36;93996.31;;;4.82;73.41
6389;BME280;3227;42.654;23.360;2023-04-05T06:30:03;93999.13;;;5.05;71.76
6389;BME280;3227;42.654;23.360;2023-04-05T06:32:30;93988.97;;;5.05;71.54
6389;BME280;3227;42.654;23.360;2023-04-05T06:34:59;94005.94;;;5.08;70.16
6389;BME280;3227;42.654;23.360;2023-04-05T06:37:26;93992.22;;;4.95;70.03
6389;BME280;3227;42.654;23.360;2023-04-05T06:39:52;94008.41;;;5.05;70.62
6389;BME280;3227;42.654;23.360;2023-04-05T06:42:19;93944.66;;;4.77;71.84
6389;BME280;3227;42.654;23.360;2023-04-05T06:44:46;94007.00;;;5.26;70.13
6389;BME280;3227;42.654;23.360;2023-04-05T06:47:13;94005.97;;;5.12;69.34
6389;BME280;3227;42.654;23.360;2023-04-05T06:49:40;94012.00;;;5.19;70.63
6389;BME280;3227;42.654;23.360;2023-04-05T06:52:08;94011.88;;;5.08;69.26
6389;BME280;3227;42.654;23.360;2023-04-05T06:54:36;94020.25;;;5.01;69.83
6389;BME280;3227;42.654;23.360;2023-04-05T06:57:03;94025.94;;;4.83;68.89
6389;BME280;3227;42.654;23.360;2023-04-05T06:59:30;94024.03;;;4.67;70.28
6389;BME280;3227;42.654;23.360;2023-04-05T07:01:57;94040.00;;;4.62;69.33
6389;BME280;3227;42.654;23.360;2023-04-05T07:04:24;94037.63;;;4.74;69.77
6389;BME280;3227;42.654;23.360;2023-04-05T07:06:53;94034.94;;;4.63;69.87
6389;BME280;3227;42.654;23.360;2023-04-05T07:09:22;94036.09;;;4.85;68.66
6389;BME280;3227;42.654;23.360;2023-04-05T07:11:49;94054.75;;;4.88;69.68
6389;BME280;3227;42.654;23.360;2023-04-05T07:14:16;94045.41;;;4.86;68.76
6389;BME280;3227;42.654;23.360;2023-04-05T07:16:43;94035.41;;;4.96;67.97
6389;BME280;3227;42.654;23.360;2023-04-05T07:19:10;94049.88;;;5.02;68.64
6389;BME280;3227;42.654;23.360;2023-04-05T07:21:37;94051.72;;;5.15;68.40
6389;BME280;3227;42.654;23.360;2023-04-05T07:24:04;94053.50;;;5.22;67.27
6389;BME280;3227;42.654;23.360;2023-04-05T07:26:33;94055.25;;;5.25;66.79
6389;BME280;3227;42.654;23.360;2023-04-05T07:29:01;94066.31;;;5.30;66.04
6389;BME280;3227;42.654;23.360;2023-04-05T07:31:28;94060.50;;;5.40;65.87
6389;BME280;3227;42.654;23.360;2023-04-05T07:33:55;94059.69;;;5.44;66.56
6389;BME280;3227;42.654;23.360;2023-04-05T07:36:23;94050.44;;;5.49;65.57
6389;BME280;3227;42.654;23.360;2023-04-05T07:38:52;94065.56;;;5.39;65.38
6389;BME280;3227;42.654;23.360;2023-04-05T07:41:19;94044.25;;;5.27;65.45
6389;BME280;3227;42.654;23.360;2023-04-05T07:43:49;94063.09;;;5.43;65.68
6389;BME280;3227;42.654;23.360;2023-04-05T07:46:16;94024.56;;;5.11;65.97
6389;BME280;3227;42.654;23.360;2023-04-05T07:48:43;94078.75;;;5.09;65.80
6389;BME280;3227;42.654;23.360;2023-04-05T07:51:11;94088.75;;;4.98;65.94
6389;BME280;3227;42.654;23.360;2023-04-05T07:53:38;94084.44;;;4.92;66.11
6389;BME280;3227;42.654;23.360;2023-04-05T07:56:07;94085.31;;;4.96;66.71
6389;BME280;3227;42.654;23.360;2023-04-05T07:58:35;94082.19;;;5.15;67.71
6389;BME280;3227;42.654;23.360;2023-04-05T08:01:07;94084.66;;;5.11;65.24
6389;BME280;3227;42.654;23.360;2023-04-05T08:03:35;94090.38;;;4.93;65.91
6389;BME280;3227;42.654;23.360;2023-04-05T08:06:10;94090.44;;;4.99;66.92
6389;BME280;3227;42.654;23.360;2023-04-05T08:08:37;94085.50;;;5.08;67.04
6389;BME280;3227;42.654;23.360;2023-04-05T08:11:05;94040.06;;;4.66;65.98
6389;BME280;3227;42.654;23.360;2023-04-05T08:13:32;94051.59;;;4.44;65.20
6389;BME280;3227;42.654;23.360;2023-04-05T08:15:59;94091.91;;;4.82;67.47
6389;BME280;3227;42.654;23.360;2023-04-05T08:18:28;94096.28;;;4.92;67.44
6389;BME280;3227;42.654;23.360;2023-04-05T08:20:55;94100.81;;;5.14;67.33
6389;BME280;3227;42.654;23.360;2023-04-05T08:23:22;94094.00;;;5.10;66.51
6389;BME280;3227;42.654;23.360;2023-04-05T08:25:49;94103.53;;;5.26;66.36
6389;BME280;3227;42.654;23.360;2023-04-05T08:28:16;94107.88;;;5.35;65.90
6389;BME280;3227;42.654;23.360;2023-04-05T08:30:43;94084.66;;;5.11;66.41
6389;BME280;3227;42.654;23.360;2023-04-05T08:33:11;94051.50;;;4.97;65.88
6389;BME280;3227;42.654;23.360;2023-04-05T08:35:39;94106.84;;;5.22;65.93
6389;BME280;3227;42.654;23.360;2023-04-05T08:38:07;94105.94;;;5.17;65.72
6389;BME280;3227;42.654;23.360;2023-04-05T08:40:39;94112.94;;;5.33;66.36
6389;BME280;3227;42.654;23.360;2023-04-05T08:43:10;94112.31;;;5.51;66.24
6389;BME280;3227;42.654;23.360;2023-04-05T08:45:43;94109.00;;;5.58;64.75
6389;BME280;3227;42.654;23.360;2023-04-05T08:48:12;94106.50;;;5.63;65.48
6389;BME280;3227;42.654;23.360;2023-04-05T08:50:40;94106.38;;;5.51;65.72
6389;BME280;3227;42.654;23.360;2023-04-05T08:53:07;94118.97;;;5.45;65.63
6389;BME280;3227;42.654;23.360;2023-04-05T08:55:35;94124.69;;;5.28;66.54
6389;BME280;3227;42.654;23.360;2023-04-05T08:58:08;94129.56;;;5.13;66.44
6389;BME280;3227;42.654;23.360;2023-04-05T09:00:36;94121.06;;;5.11;65.99
6389;BME280;3227;42.654;23.360;2023-04-05T09:03:04;94071.88;;;5.03;67.22
6389;BME280;3227;42.654;23.360;2023-04-05T09:05:32;94109.66;;;5.44;67.18
6389;BME280;3227;42.654;23.360;2023-04-05T09:08:08;94127.72;;;5.65;67.05
6389;BME280;3227;42.654;23.360;2023-04-05T09:10:36;94131.53;;;5.32;66.51
6389;BME280;3227;42.654;23.360;2023-04-05T09:13:02;94137.56;;;5.41;67.93
6389;BME280;3227;42.654;23.360;2023-04-05T09:15:30;94134.88;;;5.30;66.59
6389;BME280;3227;42.654;23.360;2023-04-05T09:17:57;94138.84;;;5.11;67.11
6389;BME280;3227;42.654;23.360;2023-04-05T09:20:24;94133.00;;;5.15;68.00
6389;BME280;3227;42.654;23.360;2023-04-05T09:22:51;94136.28;;;5.08;67.16
6389;BME280;3227;42.654;23.360;2023-04-05T09:25:35;94137.13;;;5.09;68.35
6389;BME280;3227;42.654;23.360;2023-04-05T09:28:03;94140.88;;;5.33;67.37
6389;BME280;3227;42.654;23.360;2023-04-05T09:30:30;94134.41;;;5.58;68.06
6389;BME280;3227;42.654;23.360;2023-04-05T09:32:57;94133.75;;;5.73;66.32
6389;BME280;3227;42.654;23.360;2023-04-05T09:35:25;94127.00;;;5.78;66.51
6389;BME280;3227;42.654;23.360;2023-04-05T09:38:08;94132.25;;;5.89;64.96
6389;BME280;3227;42.654;23.360;2023-04-05T09:40:44;94132.69;;;5.56;63.64
6389;BME280;3227;42.654;23.360;2023-04-05T09:43:12;94131.72;;;5.48;66.18
6389;BME280;3227;42.654;23.360;2023-04-05T09:45:39;94130.59;;;5.94;65.35
6389;BME280;3227;42.654;23.360;2023-04-05T09:48:07;94102.16;;;5.54;64.21
6389;BME280;3227;42.654;23.360;2023-04-05T09:50:35;94085.22;;;5.55;63.06
6389;BME280;3227;42.654;23.360;2023-04-05T09:53:07;94126.25;;;5.87;64.52
6389;BME280;3227;42.654;23.360;2023-04-05T09:55:37;94112.91;;;6.04;65.28
6389;BME280;3227;42.654;23.360;2023-04-05T09:58:10;94114.91;;;6.33;63.45
6389;BME280;3227;42.654;23.360;2023-04-05T10:00:37;94124.03;;;6.13;63.21
6389;BME280;3227;42.654;23.360;2023-04-05T10:03:04;94128.06;;;5.92;62.19
6389;BME280;3227;42.654;23.360;2023-04-05T10:05:31;94128.75;;;5.82;63.11
6389;BME280;3227;42.654;23.360;2023-04-05T10:08:03;94121.81;;;5.69;62.17
6389;BME280;3227;42.654;23.360;2023-04-05T10:10:35;94112.81;;;5.94;63.97
6389;BME280;3227;42.654;23.360;2023-04-05T10:13:05;94122.50;;;6.30;61.47
6389;BME280;3227;42.654;23.360;2023-04-05T10:15:32;94125.13;;;6.39;60.45
6389;BME280;3227;42.654;23.360;2023-04-05T10:18:03;94127.69;;;6.39;60.93
6389;BME280;3227;42.654;23.360;2023-04-05T10:20:32;94145.19;;;6.11;59.35
6389;BME280;3227;42.654;23.360;2023-04-05T10:23:07;94116.06;;;5.85;59.10
6389;BME280;3227;42.654;23.360;2023-04-05T10:25:55;94135.94;;;5.46;60.18
6389;BME280;3227;42.654;23.360;2023-04-05T10:28:41;94125.66;;;5.36;61.81
6389;BME280;3227;42.654;23.360;2023-04-05T10:31:11;94081.06;;;4.95;61.74
6389;BME280;3227;42.654;23.360;2023-04-05T10:33:43;94130.03;;;5.47;62.18
6389;BME280;3227;42.654;23.360;2023-04-05T10:36:20;94110.50;;;5.44;60.75
6389;BME280;3227;42.654;23.360;2023-04-05T10:39:00;94137.59;;;5.44;60.20
6389;BME280;3227;42.654;23.360;2023-04-05T10:41:33;94128.13;;;5.30;60.88
6389;BME280;3227;42.654;23.360;2023-04-05T10:44:03;94065.97;;;5.04;61.03
6389;BME280;3227;42.654;23.360;2023-04-05T10:46:31;94138.56;;;5.52;61.02
6389;BME280;3227;42.654;23.360;2023-04-05T10:49:03;94135.16;;;5.50;61.45
6389;BME280;3227;42.654;23.360;2023-04-05T10:51:33;94027.06;;;5.05;61.02
6389;BME280;3227;42.654;23.360;2023-04-05T10:54:00;94133.78;;;5.76;60.10
6389;BME280;3227;42.654;23.360;2023-04-05T10:56:27;94147.22;;;5.69;60.09
6389;BME280;3227;42.654;23.360;2023-04-05T10:58:54;94143.81;;;5.65;60.67
6389;BME280;3227;42.654;23.360;2023-04-05T11:01:23;94138.09;;;5.83;60.39
6389;BME280;3227;42.654;23.360;2023-04-05T11:03:51;94147.09;;;5.57;60.41
6389;BME280;3227;42.654;23.360;2023-04-05T11:06:22;94154.28;;;5.23;60.88
6389;BME280;3227;42.654;23.360;2023-04-05T11:08:52;94133.41;;;4.87;62.35
6389;BME280;3227;42.654;23.360;2023-04-05T11:11:22;94139.31;;;4.86;63.01
6389;BME280;3227;42.654;23.360;2023-04-05T11:13:51;94078.84;;;4.57;63.58
6389;BME280;3227;42.654;23.360;2023-04-05T11:16:18;94143.09;;;5.12;63.94
6389;BME280;3227;42.654;23.360;2023-04-05T11:18:48;94103.97;;;4.98;62.62
6389;BME280;3227;42.654;23.360;2023-04-05T11:21:23;94149.66;;;5.58;62.70
6389;BME280;3227;42.654;23.360;2023-04-05T11:24:02;94156.00;;;5.91;62.89
6389;BME280;3227;42.654;23.360;2023-04-05T11:26:34;94083.63;;;5.63;59.67
6389;BME280;3227;42.654;23.360;2023-04-05T11:29:19;94165.59;;;6.15;59.88
6389;BME280;3227;42.654;23.360;2023-04-05T11:32:11;94151.44;;;5.65;59.31
6389;BME280;3227;42.654;23.360;2023-04-05T11:34:40;94158.38;;;5.79;61.05
6389;BME280;3227;42.654;23.360;2023-04-05T11:37:07;94154.38;;;5.97;59.84
6389;BME280;3227;42.654;23.360;2023-04-05T11:39:34;94164.22;;;5.71;58.96
6389;BME280;3227;42.654;23.360;2023-04-05T11:42:04;94155.63;;;5.63;60.36
6389;BME280;3227;42.654;23.360;2023-04-05T11:44:40;93903.94;;;4.03;61.39
6389;BME280;3227;42.654;23.360;2023-04-05T11:47:07;94143.66;;;5.55;60.00
6389;BME280;3227;42.654;23.360;2023-04-05T11:49:35;94122.69;;;5.68;60.02
6389;BME280;3227;42.654;23.360;2023-04-05T11:52:11;94154.91;;;5.72;59.70
6389;BME280;3227;42.654;23.360;2023-04-05T11:54:38;94158.13;;;5.57;59.81
6389;BME280;3227;42.654;23.360;2023-04-05T11:57:12;94161.28;;;5.41;62.62
6389;BME280;3227;42.654;23.360;2023-04-05T11:59:39;94114.34;;;5.13;61.07
6389;BME280;3227;42.654;23.360;2023-04-05T12:02:06;94153.69;;;4.84;61.69
6389;BME280;3227;42.654;23.360;2023-04-05T12:04:33;94149.31;;;4.74;63.94
6389;BME280;3227;42.654;23.360;2023-04-05T12:07:15;94151.97;;;4.83;63.78
6389;BME280;3227;42.654;23.360;2023-04-05T12:10:02;94148.31;;;5.21;63.87
6389;BME280;3227;42.654;23.360;2023-04-05T12:12:37;94103.56;;;5.31;62.90
6389;BME280;3227;42.654;23.360;2023-04-05T12:15:06;94154.00;;;5.67;60.77
6389;BME280;3227;42.654;23.360;2023-04-05T12:17:44;94143.94;;;5.76;61.25
6389;BME280;3227;42.654;23.360;2023-04-05T12:20:13;94096.16;;;5.48;61.02
6389;BME280;3227;42.654;23.360;2023-04-05T12:22:43;94152.69;;;5.96;61.66
6389;BME280;3227;42.654;23.360;2023-04-05T12:25:13;94145.19;;;6.08;61.12
6389;BME280;3227;42.654;23.360;2023-04-05T12:27:40;94146.22;;;6.29;61.00
6389;BME280;3227;42.654;23.360;2023-04-05T12:30:13;94152.84;;;6.11;60.24
6389;BME280;3227;42.654;23.360;2023-04-05T12:32:44;94141.09;;;6.23;60.72
6389;BME280;3227;42.654;23.360;2023-04-05T12:35:12;94129.38;;;6.38;60.78
6389;BME280;3227;42.654;23.360;2023-04-05T12:37:39;94149.91;;;6.57;59.73
6389;BME280;3227;42.654;23.360;2023-04-05T12:40:09;94090.13;;;6.14;60.88
6389;BME280;3227;42.654;23.360;2023-04-05T12:42:37;94146.31;;;6.38;60.77
6389;BME280;3227;42.654;23.360;2023-04-05T12:45:05;94145.31;;;6.22;60.68
6389;BME280;3227;42.654;23.360;2023-04-05T12:47:51;94151.97;;;6.11;60.84
6389;BME280;3227;42.654;23.360;2023-04-05T12:50:24;94116.78;;;5.72;61.16
6389;BME280;3227;42.654;23.360;2023-04-05T12:53:05;94157.13;;;6.16;61.44
6389;BME280;3227;42.654;23.360;2023-04-05T12:55:41;94163.69;;;5.95;60.38
6389;BME280;3227;42.654;23.360;2023-04-05T12:58:10;94143.75;;;5.61;62.21
6389;BME280;3227;42.654;23.360;2023-04-05T13:00:37;94140.31;;;5.57;62.57
6389;BME280;3227;42.654;23.360;2023-04-05T13:03:04;94153.81;;;5.52;63.13
6389;BME280;3227;42.654;23.360;2023-04-05T13:05:31;94159.00;;;5.62;63.61
6389;BME280;3227;42.654;23.360;2023-04-05T13:07:58;94151.56;;;5.76;63.90
6389;BME280;3227;42.654;23.360;2023-04-05T13:10:25;94172.97;;;5.93;61.93
6389;BME280;3227;42.654;23.360;2023-04-05T13:12:53;94157.59;;;5.84;61.67
6389;BME280;3227;42.654;23.360;2023-04-05T13:15:20;94159.13;;;5.71;61.10
6389;BME280;3227;42.654;23.360;2023-04-05T13:17:47;94167.00;;;5.90;61.87
6389;BME280;3227;42.654;23.360;2023-04-05T13:20:16;94165.56;;;6.11;59.57
6389;BME280;3227;42.654;23.360;2023-04-05T13:22:43;94162.16;;;6.11;58.23
6389;BME280;3227;42.654;23.360;2023-04-05T13:25:10;94158.00;;;6.19;59.38
6389;BME280;3227;42.654;23.360;2023-04-05T13:27:37;94154.31;;;5.91;58.85
6389;BME280;3227;42.654;23.360;2023-04-05T13:30:06;94165.03;;;5.67;59.87
6389;BME280;3227;42.654;23.360;2023-04-05T13:32:33;94067.47;;;4.90;60.99